Time;durP1;ratioP1;P1;durP2;ratioP2;P2;SDS_P1;SDS_P2;PMS_P1;PMS_P2;Temp;Humidity;BMP_temperature;BMP_pressure;BME280_temperature;BME280_humidity;BME280_pressure;Samples;Min_cycle;Max_cycle;Signal;HPM_P1;HPM_P2
2021/01/13 00:00:09;;;;;;;20.90;6.30;;;0.80;99.90;;;-143.32;100.00;97775.94;4958211;29;20529;-89
2021/01/13 00:02:36;;;;;;;21.03;5.93;;;0.80;99.90;;;-143.32;100.00;97784.13;4957950;29;20465;-87
2021/01/13 00:05:04;;;;;;;16.03;5.27;;;0.80;99.90;;;-143.32;100.00;97759.59;4958643;29;20473;-87
2021/01/13 00:07:32;;;;;;;25.70;6.80;;;0.80;99.90;;;-143.32;100.00;97773.91;4958096;29;20449;-89
2021/01/13 00:09:59;;;;;;;14.43;5.60;;;0.80;99.90;;;-143.32;100.00;97751.41;4958225;29;20449;-87
2021/01/13 00:12:28;;;;;;;23.27;5.73;;;0.80;99.90;;;-143.32;100.00;97788.22;4958524;29;20548;-88
2021/01/13 00:14:55;;;;;;;21.70;6.40;;;0.70;99.90;;;-143.32;100.00;97765.72;4957735;29;20935;-87
2021/01/13 00:17:24;;;;;;;19.43;7.30;;;0.60;99.90;;;-143.32;100.00;97784.13;4958721;29;20485;-89
2021/01/13 00:19:51;;;;;;;19.70;6.00;;;0.60;99.90;;;-143.32;100.00;97778.00;4958386;29;20915;-88
2021/01/13 00:22:18;;;;;;;24.87;6.53;;;0.70;99.90;;;-143.32;100.00;97749.34;4958448;29;20488;-90
2021/01/13 00:24:45;;;;;;;15.67;5.50;;;0.60;99.90;;;-143.32;100.00;97775.94;4958525;29;20452;-88
2021/01/13 00:27:15;;;;;;;27.00;7.00;;;0.60;99.90;;;-143.32;100.00;97804.59;4958883;29;20453;-88
2021/01/13 00:29:46;;;;;;;17.80;5.90;;;0.70;99.90;;;-143.32;100.00;97769.81;4958706;29;20441;-87
2021/01/13 00:32:13;;;;;;;21.67;6.23;;;0.60;99.90;;;-143.32;100.00;97747.31;4958294;29;20453;-87
2021/01/13 00:34:40;;;;;;;23.07;6.20;;;0.60;99.90;;;-143.32;100.00;97790.28;4957836;29;20453;-88
2021/01/13 00:37:11;;;;;;;17.80;5.77;;;0.60;99.90;;;-143.32;100.00;97765.72;4957459;29;20492;-89
2021/01/13 00:39:40;;;;;;;26.40;6.40;;;0.60;99.90;;;-143.32;100.00;97778.00;4957707;29;20441;-88
2021/01/13 00:42:10;;;;;;;31.30;6.30;;;0.50;99.90;;;-143.32;100.00;97753.44;4957443;29;20457;-88
2021/01/13 00:44:36;;;;;;;19.07;6.07;;;0.50;99.90;;;-143.32;100.00;97792.31;4957259;28;20434;-89
2021/01/13 00:47:04;;;;;;;16.83;5.40;;;0.60;99.90;;;-143.32;100.00;97769.81;4957119;29;20449;-87
2021/01/13 00:49:35;;;;;;;19.83;5.90;;;0.60;99.90;;;-143.32;100.00;97765.72;4957695;29;20472;-87
2021/01/13 00:52:05;;;;;;;20.33;6.30;;;0.50;99.90;;;-143.32;100.00;97749.34;4957641;29;20453;-88
2021/01/13 00:54:32;;;;;;;33.23;5.90;;;0.60;99.90;;;-143.32;100.00;97808.69;4957343;29;20512;-88
2021/01/13 00:56:59;;;;;;;27.23;5.87;;;0.50;99.90;;;-143.32;100.00;97784.13;4958007;29;20491;-87
2021/01/13 00:59:26;;;;;;;25.27;6.60;;;0.50;99.90;;;-143.32;100.00;97724.81;4957230;28;20797;-87
2021/01/13 01:01:53;;;;;;;19.90;6.20;;;0.60;99.90;;;-143.32;100.00;97796.41;4957052;29;20437;-89
2021/01/13 01:04:21;;;;;;;20.47;5.87;;;0.60;99.90;;;-143.32;100.00;97730.94;4957332;29;20440;-88
2021/01/13 01:06:48;;;;;;;24.20;6.53;;;0.50;99.90;;;-143.32;100.00;97800.50;4957327;29;20461;-88
2021/01/13 01:09:16;;;;;;;25.93;6.07;;;0.30;99.90;;;-143.32;100.00;97796.41;4957938;29;20540;-88
2021/01/13 01:11:44;;;;;;;22.07;5.83;;;0.50;99.90;;;-143.32;100.00;97751.41;4956834;29;20445;-88
2021/01/13 01:14:12;;;;;;;22.93;6.43;;;0.50;99.90;;;-143.32;100.00;97816.88;4956963;29;20970;-87
2021/01/13 01:16:41;;;;;;;22.20;6.30;;;0.50;99.90;;;-143.32;100.00;97788.22;4956967;29;20437;-89
2021/01/13 01:19:10;;;;;;;25.77;7.10;;;0.50;99.90;;;-143.32;100.00;97755.50;4956701;29;20931;-88
2021/01/13 01:21:40;;;;;;;32.80;8.03;;;0.50;99.90;;;-143.32;100.00;97773.91;4956693;29;20477;-89
2021/01/13 01:24:09;;;;;;;13.83;5.83;;;0.50;99.90;;;-143.32;100.00;97753.44;4957295;29;20794;-89
2021/01/13 01:26:43;;;;;;;31.30;6.57;;;0.50;99.90;;;-143.32;100.00;97778.00;4957605;29;20988;-88
2021/01/13 01:29:11;;;;;;;20.83;6.50;;;0.50;99.90;;;-143.32;100.00;97702.28;4956826;29;20421;-88
2021/01/13 01:31:37;;;;;;;32.27;7.47;;;0.50;99.90;;;-143.32;100.00;97737.06;4956522;29;20509;-88
2021/01/13 01:34:07;;;;;;;13.40;5.60;;;0.50;99.90;;;-143.32;100.00;97769.81;4957048;29;20457;-88
2021/01/13 01:36:34;;;;;;;17.50;6.13;;;0.60;99.90;;;-143.32;100.00;97782.09;4956511;29;20460;-88
2021/01/13 01:39:02;;;;;;;17.30;5.83;;;0.70;99.90;;;-143.32;100.00;97798.47;4956404;29;20485;-89
2021/01/13 01:41:29;;;;;;;21.73;6.47;;;0.50;99.90;;;-143.32;100.00;97784.13;4956946;29;20465;-88
2021/01/13 01:43:56;;;;;;;23.00;7.30;;;0.50;99.90;;;-143.32;100.00;97763.66;4956647;29;20454;-88
2021/01/13 01:46:25;;;;;;;22.40;7.60;;;0.50;99.90;;;-143.32;100.00;97804.59;4956563;29;20433;-89
2021/01/13 01:48:54;;;;;;;16.63;7.40;;;0.60;99.90;;;-143.32;100.00;97796.41;4956354;29;20508;-87
2021/01/13 01:51:24;;;;;;;30.13;7.80;;;0.40;99.90;;;-143.32;100.00;97796.41;4956744;29;20449;-87
2021/01/13 01:54:16;;;;;;;20.40;7.50;;;0.70;99.90;;;-143.32;100.00;97741.16;4956660;29;20480;-88
2021/01/13 01:56:44;;;;;;;35.87;7.67;;;0.70;99.90;;;-143.32;100.00;97755.50;4957231;28;20588;-87
2021/01/13 01:59:15;;;;;;;25.00;7.40;;;0.60;99.90;;;-143.32;100.00;97790.28;4955923;28;20963;-87
2021/01/13 02:01:44;;;;;;;26.70;7.87;;;0.70;99.90;;;-143.32;100.00;97759.59;4956519;29;20449;-88
2021/01/13 02:04:17;;;;;;;20.77;7.77;;;0.60;99.90;;;-143.32;100.00;97769.81;4956422;29;20504;-87
2021/01/13 02:07:06;;;;;;;24.50;7.77;;;0.70;99.90;;;-143.32;100.00;97790.28;4956886;29;20469;-89
2021/01/13 02:09:34;;;;;;;27.40;8.43;;;0.60;99.90;;;-143.32;100.00;97780.03;4955731;29;21002;-89
2021/01/13 02:12:10;;;;;;;26.93;8.80;;;0.70;99.90;;;-143.32;100.00;97747.31;4955842;29;20437;-88
2021/01/13 02:14:40;;;;;;;27.23;10.03;;;0.60;99.90;;;-143.32;100.00;97765.72;4956957;29;20472;-88
2021/01/13 02:17:11;;;;;;;35.93;11.30;;;0.60;99.90;;;-143.32;100.00;97761.63;4956212;29;20568;-87
2021/01/13 02:20:11;;;;;;;35.27;9.73;;;0.60;99.90;;;-143.32;100.00;97771.84;4956156;29;20780;-87
2021/01/13 02:23:05;;;;;;;30.47;11.00;;;0.50;99.90;;;-143.32;100.00;97765.72;4956432;29;20444;-88
2021/01/13 02:26:33;;;;;;;38.23;12.13;;;0.50;99.90;;;-143.32;100.00;97763.66;4955824;29;20421;-88
2021/01/13 02:29:12;;;;;;;26.63;11.00;;;0.50;99.90;;;-143.32;100.00;97757.53;4956024;29;20436;-88
2021/01/13 02:31:53;;;;;;;40.47;11.90;;;0.50;99.90;;;-143.32;100.00;97759.59;4956115;29;20437;-88
2021/01/13 02:34:31;;;;;;;27.57;10.47;;;0.50;99.90;;;-143.32;100.00;97804.59;4955954;29;20452;-88
2021/01/13 02:37:24;;;;;;;27.10;11.33;;;0.50;99.90;;;-143.32;100.00;97757.53;4955883;29;20884;-89
2021/01/13 02:39:53;;;;;;;30.10;10.80;;;0.50;99.90;;;-143.32;100.00;97735.03;4955897;29;20445;-89
2021/01/13 02:42:29;;;;;;;36.30;10.80;;;0.50;99.90;;;-143.32;100.00;97775.94;4955609;29;20465;-88
2021/01/13 02:45:10;;;;;;;26.53;11.60;;;0.50;99.90;;;-143.32;100.00;97794.38;4956499;29;20523;-88
2021/01/13 02:48:08;;;;;;;24.90;10.03;;;0.50;99.90;;;-143.32;100.00;97767.75;4955762;29;20421;-88
2021/01/13 02:50:37;;;;;;;40.30;11.80;;;0.40;99.90;;;-143.32;100.00;97763.66;4955737;29;20428;-88
2021/01/13 02:53:56;;;;;;;30.07;9.23;;;0.40;99.90;;;-143.32;100.00;97778.00;4955847;29;20462;-88
2021/01/13 02:56:44;;;;;;;32.83;9.67;;;0.40;99.90;;;-143.32;100.00;97747.31;4955461;29;20465;-90
2021/01/13 02:59:15;;;;;;;31.00;8.27;;;0.30;99.90;;;-143.32;100.00;97759.59;4955742;28;20504;-86
2021/01/13 03:01:59;;;;;;;19.83;7.63;;;0.30;99.90;;;-143.32;100.00;97784.13;4956512;29;20784;-89
2021/01/13 03:04:26;;;;;;;19.33;8.27;;;0.20;99.90;;;-143.32;100.00;97808.69;4955697;29;20448;-88
2021/01/13 03:06:56;;;;;;;19.20;7.83;;;0.30;99.90;;;-143.32;100.00;97751.41;4955185;29;20438;-87
2021/01/13 03:09:24;;;;;;;25.43;8.20;;;0.40;99.90;;;-143.32;100.00;97790.28;4958091;28;20449;-87
2021/01/13 03:11:51;;;;;;;19.37;7.23;;;0.50;99.90;;;-143.32;100.00;97773.91;4959162;29;20452;-90
2021/01/13 03:14:26;;;;;;;17.00;7.10;;;0.40;99.90;;;-143.32;100.00;97771.84;4958864;29;20457;-88
2021/01/13 03:17:37;;;;;;;33.37;8.10;;;0.40;99.90;;;-143.32;100.00;97747.31;4959639;29;20551;-88
2021/01/13 03:20:20;;;;;;;23.80;7.10;;;0.50;99.90;;;-143.32;100.00;97771.84;4959622;29;20527;-87
2021/01/13 03:22:57;;;;;;;21.93;6.47;;;0.50;99.90;;;-143.32;100.00;97812.78;4959288;29;20788;-89
2021/01/13 03:25:26;;;;;;;19.50;7.53;;;0.70;99.90;;;-143.32;100.00;97794.38;4960052;29;20903;-90
2021/01/13 03:27:55;;;;;;;17.50;7.07;;;0.60;99.90;;;-143.32;100.00;97784.13;4959200;29;20927;-88
2021/01/13 03:30:26;;;;;;;24.13;7.50;;;0.60;99.90;;;-143.32;100.00;97741.16;4959381;29;20797;-88
2021/01/13 03:33:18;;;;;;;20.33;7.70;;;0.60;99.90;;;-143.32;100.00;97753.44;4958900;29;20519;-88
2021/01/13 03:35:53;;;;;;;17.53;6.73;;;0.60;99.90;;;-143.32;100.00;97814.81;4958557;29;20443;-87
2021/01/13 03:38:24;;;;;;;19.40;7.57;;;0.70;99.90;;;-143.32;100.00;97732.97;4958663;29;20575;-89
2021/01/13 03:41:00;;;;;;;24.23;7.83;;;0.60;99.90;;;-143.32;100.00;97767.75;4958987;29;20441;-88
2021/01/13 03:43:38;;;;;;;17.70;6.70;;;0.70;99.90;;;-143.32;100.00;97761.63;4959737;29;20444;-90
2021/01/13 03:46:08;;;;;;;22.70;6.57;;;0.60;99.90;;;-143.32;100.00;97743.22;4959727;29;20449;-87
2021/01/13 03:48:51;;;;;;;23.07;7.77;;;0.70;99.90;;;-143.32;100.00;97759.59;4958515;29;20453;-88
2021/01/13 03:51:47;;;;;;;21.77;6.93;;;0.70;99.90;;;-143.32;100.00;97765.72;4959303;29;20507;-88
2021/01/13 03:54:20;;;;;;;15.17;6.33;;;0.70;99.90;;;-143.32;100.00;97753.44;4959545;29;20448;-88
2021/01/13 03:57:00;;;;;;;15.10;6.77;;;0.70;99.90;;;-143.32;100.00;97749.34;4958896;29;20441;-87
2021/01/13 03:59:47;;;;;;;36.50;7.30;;;0.70;99.90;;;-143.32;100.00;97775.94;4958358;28;20812;-88
2021/01/13 04:02:19;;;;;;;17.67;7.60;;;0.70;99.90;;;-143.32;100.00;97718.66;4958912;29;20445;-87
2021/01/13 04:08:18;;;;;;;11.80;5.57;;;0.80;99.90;;;-143.32;100.00;97745.25;4949900;29;20927;-90
2021/01/13 04:10:45;;;;;;;27.73;7.10;;;0.90;99.90;;;-143.32;100.00;97726.84;4958197;29;20787;-88
2021/01/13 04:13:36;;;;;;;11.50;6.00;;;0.80;99.90;;;-143.32;100.00;97778.00;4957983;29;20496;-87
2021/01/13 04:16:07;;;;;;;21.73;6.83;;;0.80;99.90;;;-143.32;100.00;97769.81;4958380;29;20966;-88
2021/01/13 04:18:35;;;;;;;15.73;6.63;;;0.80;99.90;;;-143.32;100.00;97747.31;4958577;29;20477;-87
2021/01/13 04:21:05;;;;;;;16.00;6.77;;;0.90;99.90;;;-143.32;100.00;97757.53;4957342;28;20457;-88
2021/01/13 04:23:33;;;;;;;15.63;6.40;;;0.90;99.90;;;-143.32;100.00;97732.97;4958826;29;20466;-87
2021/01/13 04:26:01;;;;;;;17.73;6.53;;;1.00;99.90;;;-143.32;100.00;97743.22;4958016;29;20449;-86
2021/01/13 04:28:29;;;;;;;17.10;6.53;;;1.00;99.90;;;-143.32;100.00;97749.34;4957741;29;20500;-87
2021/01/13 04:30:57;;;;;;;14.90;6.53;;;1.00;99.90;;;-143.32;100.00;97798.47;4957777;29;20449;-89
2021/01/13 04:33:31;;;;;;;28.30;7.20;;;1.00;99.90;;;-143.32;100.00;97702.28;4957948;29;20449;-87
2021/01/13 04:36:10;;;;;;;14.70;7.03;;;0.90;99.90;;;-143.32;100.00;97759.59;4958442;29;20541;-88
2021/01/13 04:38:37;;;;;;;27.63;7.20;;;0.90;99.90;;;-143.32;100.00;97745.25;4957248;29;20511;-87
2021/01/13 04:41:10;;;;;;;18.23;6.30;;;0.90;99.90;;;-143.32;100.00;97778.00;4957579;29;20457;-88
2021/01/13 04:44:02;;;;;;;28.90;6.70;;;0.90;99.90;;;-143.32;100.00;97767.75;4957850;29;20455;-89
2021/01/13 04:46:37;;;;;;;19.43;7.20;;;0.90;99.90;;;-143.32;100.00;97765.72;4957513;29;20746;-87
2021/01/13 04:49:11;;;;;;;21.93;6.80;;;0.90;99.90;;;-143.32;100.00;97732.97;4958182;29;20441;-89
2021/01/13 04:51:41;;;;;;;18.40;7.17;;;0.90;99.90;;;-143.32;100.00;97753.44;4958299;29;20440;-87
2021/01/13 04:54:19;;;;;;;25.10;6.83;;;0.90;99.90;;;-143.32;100.00;97780.03;4957269;29;20465;-89
2021/01/13 04:58:15;;;;;;;26.17;6.63;;;0.90;99.90;;;-143.32;100.00;97761.63;4957827;29;20445;-87
2021/01/13 05:01:13;;;;;;;16.80;7.63;;;0.90;99.90;;;-143.32;100.00;97775.94;4957852;29;20453;-89
2021/01/13 05:03:52;;;;;;;22.93;7.70;;;0.90;99.90;;;-143.32;100.00;97773.91;4957706;29;20500;-89
2021/01/13 05:06:47;;;;;;;17.63;6.33;;;0.90;99.90;;;-143.32;100.00;97769.81;4957591;29;20449;-86
2021/01/13 05:09:45;;;;;;;16.73;5.57;;;0.90;99.90;;;-143.32;100.00;97775.94;4957611;29;20454;-87
2021/01/13 05:12:27;;;;;;;26.17;6.30;;;0.80;99.90;;;-143.32;100.00;97765.72;4957779;29;20544;-88
2021/01/13 05:15:07;;;;;;;18.57;5.60;;;0.90;99.90;;;-143.32;100.00;97732.97;4957387;29;20472;-87
2021/01/13 05:17:41;;;;;;;26.27;8.10;;;0.90;99.90;;;-143.32;100.00;97741.16;4957389;29;20560;-88
2021/01/13 05:20:28;;;;;;;15.07;5.60;;;1.00;99.90;;;-143.32;100.00;97714.56;4956862;29;20457;-90
2021/01/13 05:23:03;;;;;;;19.53;6.40;;;1.10;99.90;;;-143.32;100.00;97732.97;4956754;29;20498;-88
2021/01/13 05:25:48;;;;;;;13.20;5.50;;;1.20;99.90;;;-143.32;100.00;97757.53;4956673;29;20413;-88
2021/01/13 05:28:20;;;;;;;19.67;5.50;;;1.30;99.90;;;-143.32;100.00;97751.41;4957214;29;20453;-88
2021/01/13 05:30:57;;;;;;;15.53;5.20;;;1.40;99.90;;;-143.32;100.00;97728.88;4956545;28;20441;-88
2021/01/13 05:33:28;;;;;;;20.10;5.50;;;1.60;99.90;;;-143.32;100.00;97747.31;4957071;29;20898;-88
2021/01/13 05:35:56;;;;;;;17.93;5.20;;;1.50;99.90;;;-143.32;100.00;97696.16;4956645;29;20441;-88
2021/01/13 05:39:08;;;;;;;21.10;5.60;;;1.60;99.90;;;-143.32;100.00;97710.47;4956139;29;20485;-88
2021/01/13 05:41:39;;;;;;;25.53;5.83;;;1.60;99.90;;;-143.32;100.00;97732.97;4897327;29;20444;-88
2021/01/13 05:44:08;;;;;;;14.10;4.90;;;1.70;99.90;;;-143.32;100.00;97687.97;4897681;29;20576;-87
2021/01/13 05:46:47;;;;;;;18.80;5.30;;;1.80;99.90;;;-143.32;100.00;97732.97;4930724;29;20457;-87
2021/01/13 05:49:14;;;;;;;29.37;5.13;;;1.80;99.90;;;-143.32;100.00;97712.53;4956892;29;20437;-88
2021/01/13 05:51:46;;;;;;;15.20;4.37;;;1.80;99.90;;;-143.32;100.00;97743.22;4956345;29;20971;-88
2021/01/13 05:54:18;;;;;;;23.20;5.60;;;1.80;99.90;;;-143.32;100.00;97735.03;4957317;29;20513;-89
2021/01/13 05:56:46;;;;;;;16.13;4.60;;;1.80;99.90;;;-143.32;100.00;97706.38;4956982;29;20508;-87
2021/01/13 05:59:14;;;;;;;22.50;6.97;;;1.80;99.90;;;-143.32;100.00;97751.41;4956042;28;20500;-89
2021/01/13 06:01:48;;;;;;;18.00;4.47;;;1.90;99.90;;;-143.32;100.00;97718.66;4956007;29;20543;-88
2021/01/13 06:04:17;;;;;;;19.13;5.30;;;1.90;99.90;;;-143.32;100.00;97692.06;4956401;29;20445;-89
2021/01/13 06:06:58;;;;;;;27.43;6.13;;;2.10;99.90;;;-143.32;100.00;97751.41;4956234;29;20856;-88
2021/01/13 06:09:28;;;;;;;13.37;4.97;;;1.90;99.90;;;-143.32;100.00;97743.22;4956225;29;20738;-87
2021/01/13 06:11:56;;;;;;;15.70;5.70;;;2.00;99.90;;;-143.32;100.00;97751.41;4956274;29;20418;-87
2021/01/13 06:14:26;;;;;;;22.70;5.90;;;2.00;99.90;;;-143.32;100.00;97728.88;4956252;29;20490;-87
2021/01/13 06:16:54;;;;;;;22.37;5.60;;;2.00;99.90;;;-143.32;100.00;97712.53;4955966;29;20444;-89
2021/01/13 06:23:08;;;;;;;17.03;5.77;;;1.90;99.90;;;-143.32;100.00;97696.16;4955766;29;20500;-87
2021/01/13 06:25:37;;;;;;;20.00;7.30;;;1.90;99.90;;;-143.32;100.00;97757.53;4955850;29;20445;-89
2021/01/13 06:31:55;;;;;;;20.93;7.30;;;1.90;99.90;;;-143.32;100.00;97712.53;4961101;29;20461;-90
2021/01/13 06:37:53;;;;;;;20.93;6.77;;;1.80;99.90;;;-143.32;100.00;97769.81;4975268;29;20481;-92
2021/01/13 06:40:23;;;;;;;25.97;7.40;;;1.80;99.90;;;-143.32;100.00;97720.72;4968867;29;20800;-92
2021/01/13 06:42:51;;;;;;;23.40;7.30;;;1.80;99.90;;;-143.32;100.00;97735.03;4961654;29;20467;-91
2021/01/13 06:45:32;;;;;;;28.00;7.80;;;1.70;99.90;;;-143.32;100.00;97726.84;4958138;29;20445;-91
2021/01/13 06:51:44;;;;;;;25.43;8.80;;;1.70;99.90;;;-143.32;100.00;97681.84;4959343;29;20417;-91
2021/01/13 06:57:57;;;;;;;22.03;8.83;;;1.60;99.90;;;-143.32;100.00;97743.22;4960759;29;20512;-91
2021/01/13 07:00:24;;;;;;;25.43;9.50;;;1.60;99.90;;;-143.32;100.00;97769.81;4960731;28;20473;-90
2021/01/13 07:02:51;;;;;;;45.67;10.57;;;1.60;99.90;;;-143.32;100.00;97730.94;4958553;29;20536;-93
2021/01/13 07:05:34;;;;;;;27.73;9.63;;;1.60;99.90;;;-143.32;100.00;97704.34;4942320;29;20458;-90
2021/01/13 07:08:03;;;;;;;29.03;10.97;;;1.50;99.90;;;-143.32;100.00;97751.41;4960589;29;20916;-90
2021/01/13 07:10:31;;;;;;;30.80;11.80;;;1.50;99.90;;;-143.32;100.00;97673.66;4965924;29;20445;-90
2021/01/13 07:12:59;;;;;;;37.23;12.70;;;1.40;99.90;;;-143.32;100.00;97745.25;4959827;29;20445;-91
2021/01/13 07:15:26;;;;;;;24.00;11.80;;;1.50;99.90;;;-143.32;100.00;97716.63;4961156;29;20453;-91
2021/01/13 07:17:53;;;;;;;37.67;12.13;;;1.50;99.90;;;-143.32;100.00;97757.53;4958387;29;20484;-90
2021/01/13 07:20:20;;;;;;;27.60;11.17;;;1.40;99.90;;;-143.32;100.00;97728.88;4956968;29;20473;-90
2021/01/13 07:22:48;;;;;;;40.10;12.17;;;1.40;99.90;;;-143.32;100.00;97784.13;4956304;29;20464;-90
2021/01/13 07:28:57;;;;;;;36.30;12.20;;;1.40;99.90;;;-143.32;100.00;97769.81;4956405;29;20441;-91
2021/01/13 07:31:29;;;;;;;29.97;11.60;;;1.40;99.90;;;-143.32;100.00;97749.34;4955857;28;20473;-90
2021/01/13 07:34:03;;;;;;;30.20;12.40;;;1.30;99.90;;;-143.32;100.00;97730.94;4956389;29;20453;-90
2021/01/13 07:36:34;;;;;;;41.60;13.10;;;1.30;99.90;;;-143.32;100.00;97710.47;4956042;29;20452;-90
2021/01/13 07:39:07;;;;;;;25.43;11.20;;;1.40;99.90;;;-143.32;100.00;97759.59;4956058;29;20481;-91
2021/01/13 07:42:17;;;;;;;38.93;11.90;;;1.30;99.90;;;-143.32;100.00;97735.03;4957383;29;20548;-90
2021/01/13 07:44:45;;;;;;;30.27;12.53;;;1.30;99.90;;;-143.32;100.00;97749.34;4956621;29;20480;-90
2021/01/13 07:47:32;;;;;;;39.37;13.27;;;1.30;99.90;;;-143.32;100.00;97769.81;4955722;29;20826;-90
2021/01/13 07:50:10;;;;;;;36.03;13.00;;;1.40;99.90;;;-143.32;100.00;97692.06;4956877;29;20441;-91
2021/01/13 07:52:43;;;;;;;38.43;13.27;;;1.40;99.90;;;-143.32;100.00;97767.75;4956326;29;20433;-91
2021/01/13 07:55:18;;;;;;;38.17;13.93;;;1.40;99.90;;;-143.32;100.00;97726.84;4957958;28;20530;-91
2021/01/13 07:57:50;;;;;;;33.10;13.67;;;1.50;99.90;;;-143.32;100.00;97616.38;4959683;29;20484;-90
2021/01/13 08:00:28;;;;;;;38.60;13.53;;;1.50;99.90;;;-143.32;100.00;97624.53;4959685;28;20476;-88
2021/01/13 08:03:53;;;;;;;38.50;13.43;;;1.50;99.90;;;-143.32;100.00;97602.03;4959459;29;20795;-91
2021/01/13 08:06:32;;;;;;;30.10;12.93;;;1.50;99.90;;;-143.32;100.00;97618.41;4959440;29;20457;-90
2021/01/13 08:13:35;;;;;;;48.87;15.10;;;1.60;99.90;;;-143.32;100.00;97642.97;4958753;28;20413;-89
2021/01/13 08:16:47;;;;;;;35.43;13.73;;;1.70;99.90;;;-143.32;100.00;97624.53;4958772;29;20939;-90
2021/01/13 08:20:26;;;;;;;33.43;13.37;;;1.70;99.90;;;-143.32;100.00;97612.28;4958542;29;20500;-90
2021/01/13 08:23:09;;;;;;;32.37;11.73;;;1.60;99.90;;;-143.32;100.00;97608.19;4958850;29;20449;-89
2021/01/13 08:25:39;;;;;;;25.17;12.03;;;1.80;99.90;;;-143.32;100.00;97634.78;4958987;29;20820;-86
2021/01/13 08:28:12;;;;;;;39.60;13.60;;;1.80;99.90;;;-143.32;100.00;97620.47;4959302;29;20828;-88
2021/01/13 08:34:37;;;;;;;25.97;11.03;;;1.80;99.90;;;-143.32;100.00;97618.41;4958484;29;20416;-88
2021/01/13 08:37:09;;;;;;;31.60;12.10;;;1.90;99.90;;;-143.32;100.00;97647.06;4959205;29;20488;-89
2021/01/13 08:39:42;;;;;;;36.30;11.40;;;1.90;99.90;;;-143.32;100.00;97642.97;4958263;29;20488;-89
2021/01/13 08:42:29;;;;;;;26.97;9.23;;;1.90;99.90;;;-143.32;100.00;97669.56;4958529;29;20481;-90
2021/01/13 08:45:11;;;;;;;30.50;10.90;;;1.90;99.90;;;-143.32;100.00;97624.53;4958815;29;20441;-90
2021/01/13 08:48:08;;;;;;;23.80;10.23;;;2.00;99.90;;;-143.32;100.00;97620.47;4957885;29;20991;-89
2021/01/13 08:51:19;;;;;;;25.70;10.40;;;2.00;99.90;;;-143.32;100.00;97622.50;4958182;29;20503;-89
2021/01/13 08:53:51;;;;;;;21.40;11.17;;;2.00;99.90;;;-143.32;100.00;97642.97;4958430;29;20541;-90
2021/01/13 08:56:22;;;;;;;32.87;10.20;;;2.00;99.90;;;-143.32;100.00;97618.41;4959166;29;20515;-92
2021/01/13 08:58:55;;;;;;;25.73;9.43;;;2.10;99.90;;;-143.32;100.00;97657.28;4958743;29;20481;-91
2021/01/13 09:05:59;;;;;;;24.97;9.57;;;2.10;99.90;;;-143.32;100.00;97577.50;4899924;29;20560;-91
2021/01/13 09:08:51;;;;;;;26.27;9.67;;;2.10;99.90;;;-143.32;100.00;97565.22;4920343;29;20480;-89
2021/01/13 09:11:44;;;;;;;35.60;9.87;;;2.10;99.90;;;-143.32;100.00;97608.19;4968449;29;20468;-92
2021/01/13 09:19:05;;;;;;;17.27;8.87;;;2.10;99.90;;;-143.32;100.00;97638.88;4966159;29;20516;-90
2021/01/13 09:29:17;;;;;;;23.33;8.80;;;2.40;99.90;;;-143.32;100.00;97585.69;4889537;29;20446;-90
2021/01/13 09:33:00;;;;;;;19.13;9.37;;;2.60;99.90;;;-143.32;100.00;97565.22;4967170;28;20852;-91
2021/01/13 09:36:07;;;;;;;18.63;10.10;;;2.60;99.90;;;-143.32;100.00;97597.94;4966451;29;20544;-90
2021/01/13 09:38:52;;;;;;;24.47;8.57;;;2.80;99.90;;;-143.32;100.00;97620.47;4969055;29;20489;-90
2021/01/13 09:45:43;;;;;;;29.70;9.53;;;2.80;99.90;;;-143.32;100.00;97597.94;4970360;29;20509;-91
2021/01/13 09:48:41;;;;;;;31.00;9.00;;;3.00;99.90;;;-143.32;100.00;97587.72;4971850;29;20438;-89
2021/01/13 09:51:16;;;;;;;27.80;9.13;;;2.90;99.90;;;-143.32;100.00;97567.25;4951000;29;20457;-91
2021/01/13 09:53:58;;;;;;;38.57;9.67;;;3.10;99.90;;;-143.32;100.00;97552.94;4962047;29;20452;-90
2021/01/13 09:56:26;;;;;;;23.70;9.17;;;3.10;99.90;;;-143.32;100.00;97557.03;4960444;29;20456;-92
2021/01/13 09:58:54;;;;;;;21.70;9.93;;;3.20;99.90;;;-143.32;100.00;97591.81;4959997;29;20560;-92
2021/01/13 10:01:43;;;;;;;;;;;;;;;;;;;;;
2021/01/13 10:04:15;;;;;;;27.53;9.17;;;3.30;99.90;;;-143.32;100.00;97581.59;4961539;29;20456;-92
2021/01/13 10:06:43;;;;;;;25.30;9.53;;;3.40;99.90;;;-143.32;100.00;97600.00;4961836;29;20785;-91
2021/01/13 10:09:16;;;;;;;30.40;9.70;;;3.50;99.90;;;-143.32;100.00;97569.31;4961101;29;20468;-90
2021/01/13 10:11:43;;;;;;;26.43;9.73;;;3.40;99.90;;;-143.32;100.00;97557.03;4959336;29;20442;-90
2021/01/13 10:18:31;;;;;;;27.00;9.03;;;3.50;99.90;;;-143.32;100.00;97563.16;4956458;28;20958;-91
2021/01/13 10:21:02;;;;;;;25.83;8.00;;;3.50;99.90;;;-143.32;100.00;97557.03;4957194;29;20464;-90
2021/01/13 10:23:31;;;;;;;31.13;9.30;;;3.40;99.90;;;-143.32;100.00;97530.44;4958474;29;20465;-90
2021/01/13 10:26:23;;;;;;;24.70;9.23;;;3.40;99.90;;;-143.32;100.00;97561.13;4956949;29;20950;-90
2021/01/13 10:29:00;;;;;;;25.07;9.23;;;3.30;99.90;;;-143.32;100.00;97575.44;4956771;29;20912;-90
2021/01/13 10:32:14;;;;;;;25.53;10.53;;;3.40;99.90;;;-143.32;100.00;97557.03;4956444;29;20441;-92
2021/01/13 10:34:52;;;;;;;28.37;9.43;;;3.50;99.90;;;-143.32;100.00;97559.06;4959173;29;20452;-92
2021/01/13 10:37:21;;;;;;;37.17;9.90;;;3.70;99.90;;;-143.32;100.00;97456.78;4957938;29;20453;-92
2021/01/13 10:39:52;;;;;;;27.10;8.50;;;3.90;99.90;;;-143.32;100.00;97530.44;4957974;29;20488;-92
2021/01/13 10:42:43;;;;;;;;;;;;;;;;;;;;;
2021/01/13 10:45:27;;;;;;;25.43;8.70;;;4.20;99.90;;;-143.32;100.00;97518.16;4961249;29;20448;-92
2021/01/13 10:47:57;;;;;;;20.83;8.40;;;4.20;99.90;;;-143.32;100.00;97456.78;4956966;29;20457;-91
2021/01/13 10:50:30;;;;;;;24.00;8.90;;;4.40;99.90;;;-143.32;100.00;97489.53;4959665;29;20966;-90
2021/01/13 10:54:22;;;;;;;;;;;;;;;;;;;;;
2021/01/13 11:01:37;;;;;;;;;;;;;;;;;;;;;
2021/01/13 11:15:11;;;;;;;24.77;10.13;;;4.80;99.90;;;-143.32;100.00;97469.06;5048366;23;20543;-88
2021/01/13 11:18:29;;;;;;;30.63;9.50;;;4.80;99.90;;;-143.32;100.00;97495.66;4974931;28;20455;-89
2021/01/13 11:20:57;;;;;;;19.37;9.20;;;4.80;99.90;;;-143.32;100.00;97473.16;4974891;28;20444;-89
2021/01/13 11:23:25;;;;;;;27.37;10.10;;;4.80;99.90;;;-143.32;100.00;97487.47;4974768;28;20463;-89
2021/01/13 11:25:54;;;;;;;25.23;9.80;;;4.80;99.90;;;-143.32;100.00;97493.59;4974739;28;20448;-90
2021/01/13 11:28:29;;;;;;;22.23;10.13;;;4.80;99.90;;;-143.32;100.00;97501.78;4975621;28;20464;-88
2021/01/13 11:31:01;;;;;;;29.00;11.60;;;4.70;99.90;;;-143.32;100.00;97485.44;4977361;28;20438;-90
2021/01/13 11:33:47;;;;;;;17.60;10.53;;;4.70;99.90;;;-143.32;100.00;97481.34;4978151;28;20940;-90
2021/01/13 11:39:59;;;;;;;19.33;10.30;;;4.50;99.90;;;-143.32;100.00;97514.06;4976947;28;20483;-88
2021/01/13 11:43:32;;;;;;;30.30;10.87;;;4.50;99.90;;;-143.32;100.00;97485.44;4978086;28;20443;-88
2021/01/13 11:46:30;;;;;;;25.13;12.30;;;4.60;99.90;;;-143.32;100.00;97477.25;4941662;28;20463;-89
2021/01/13 11:53:12;;;;;;;21.70;10.37;;;4.70;99.90;;;-143.32;100.00;97477.25;4824915;29;20440;-90
2021/01/13 11:55:42;;;;;;;18.90;11.33;;;4.80;99.90;;;-143.32;100.00;97460.88;4838554;29;20455;-87
2021/01/13 11:58:17;;;;;;;21.03;12.53;;;4.80;99.90;;;-143.32;100.00;97497.69;4953724;29;20851;-89
2021/01/13 12:00:54;;;;;;;21.47;10.80;;;4.80;99.90;;;-143.32;100.00;97493.59;4966499;28;20451;-87
2021/01/13 12:03:30;;;;;;;21.30;10.93;;;4.80;99.90;;;-143.32;100.00;97458.84;4959380;29;20495;-88
2021/01/13 12:06:27;;;;;;;26.07;12.20;;;4.80;99.90;;;-143.32;100.00;97491.56;4958209;29;20973;-90